createdAt,value
2018-05-12T00:01:52.771Z,96.60
2018-05-12T00:04:22.001Z,98.00
2018-05-12T00:06:51.262Z,97.90
2018-05-12T00:09:19.722Z,97.90
2018-05-12T00:11:48.948Z,97.60
2018-05-12T00:14:18.188Z,98.00
2018-05-12T00:16:46.749Z,98.00
2018-05-12T00:19:16.003Z,97.40
2018-05-12T00:21:45.346Z,97.70
2018-05-12T00:24:13.999Z,97.70
2018-05-12T00:26:42.701Z,98.30
2018-05-12T00:29:11.388Z,99.00
2018-05-12T00:31:40.279Z,99.90
2018-05-12T00:34:09.853Z,99.90
2018-05-12T00:36:39.522Z,99.90
2018-05-12T00:39:08.414Z,99.90
2018-05-12T00:41:37.087Z,99.90
2018-05-12T00:44:05.618Z,99.90
2018-05-12T00:46:34.137Z,99.90
2018-05-12T00:49:02.600Z,99.90
2018-05-12T00:51:31.802Z,99.40
2018-05-12T00:54:00.335Z,99.40
2018-05-12T00:56:28.931Z,99.10
2018-05-12T00:58:57.973Z,99.50
2018-05-12T01:01:26.856Z,99.90
2018-05-12T01:03:55.383Z,99.90
2018-05-12T01:06:23.803Z,99.90
2018-05-12T01:08:52.264Z,99.90
2018-05-12T01:11:20.689Z,99.90
2018-05-12T01:13:49.949Z,99.90
2018-05-12T01:16:18.384Z,99.90
2018-05-12T01:18:46.817Z,99.90
2018-05-12T01:21:16.017Z,99.90
2018-05-12T01:23:44.437Z,99.90
2018-05-12T01:26:13.666Z,99.90
2018-05-12T01:28:42.143Z,99.90
2018-05-12T01:31:10.682Z,99.90
2018-05-12T01:33:39.223Z,99.90
2018-05-12T01:36:07.922Z,99.90
2018-05-12T01:38:36.701Z,99.90
2018-05-12T01:41:06.397Z,99.90
2018-05-12T01:43:35.046Z,99.90
2018-05-12T01:46:04.398Z,99.90
2018-05-12T01:48:32.906Z,99.90
2018-05-12T01:51:01.405Z,99.90
2018-05-12T01:53:30.864Z,99.90
2018-05-12T01:55:59.343Z,99.90
2018-05-12T01:58:28.590Z,99.90
2018-05-12T02:00:57.086Z,99.90
2018-05-12T02:03:25.581Z,99.90
2018-05-12T02:05:54.048Z,99.90
2018-05-12T02:08:22.491Z,99.90
2018-05-12T02:10:51.710Z,99.90
2018-05-12T02:13:20.128Z,99.90
2018-05-12T02:15:48.617Z,99.90
2018-05-12T02:18:17.816Z,99.90
2018-05-12T02:20:46.237Z,99.90
2018-05-12T02:23:14.680Z,99.90
2018-05-12T02:25:43.200Z,99.90
2018-05-12T02:28:11.683Z,99.90
2018-05-12T02:30:40.184Z,99.90
2018-05-12T02:33:08.828Z,99.90
2018-05-12T02:35:38.331Z,99.90
2018-05-12T02:38:07.071Z,99.90
2018-05-12T02:40:36.613Z,99.90
2018-05-12T02:43:06.382Z,99.90
2018-05-12T02:45:35.781Z,99.90
2018-05-12T02:48:04.344Z,99.90
2018-05-12T02:50:32.847Z,99.90
2018-05-12T02:53:01.359Z,99.90
2018-05-12T02:55:29.792Z,99.90
2018-05-12T02:57:58.294Z,99.90
2018-05-12T03:00:26.800Z,99.90
2018-05-12T03:02:55.321Z,99.90
2018-05-12T03:05:23.805Z,99.90
2018-05-12T03:07:52.273Z,99.90
2018-05-12T03:10:20.785Z,99.90
2018-05-12T03:12:49.981Z,99.90
2018-05-12T03:15:18.421Z,99.90
2018-05-12T03:17:46.857Z,99.90
2018-05-12T03:20:15.278Z,99.90
2018-05-12T03:22:43.785Z,99.90
2018-05-12T03:25:12.280Z,99.90
2018-05-12T03:27:40.779Z,99.90
2018-05-12T03:30:09.412Z,99.90
2018-05-12T03:32:38.095Z,99.90
2018-05-12T03:35:06.834Z,99.90
2018-05-12T03:37:36.320Z,99.90
2018-05-12T03:40:04.885Z,99.90
2018-05-12T03:42:34.159Z,99.90
2018-05-12T03:45:02.608Z,99.90
2018-05-12T03:47:31.095Z,99.90
2018-05-12T03:49:59.515Z,99.90
2018-05-12T03:52:28.037Z,99.90
2018-05-12T03:54:56.548Z,99.90
2018-05-12T03:57:25.809Z,99.90
2018-05-12T03:59:54.405Z,99.90
2018-05-12T04:02:22.790Z,99.90
2018-05-12T04:05:09.069Z,99.90
2018-05-12T04:07:55.285Z,99.90
2018-05-12T04:13:30.732Z,99.90
2018-05-12T04:15:59.208Z,99.90
2018-05-12T04:18:28.488Z,99.90
2018-05-12T04:20:57.106Z,99.90
2018-05-12T04:23:26.549Z,99.90
2018-05-12T04:25:55.001Z,99.90
2018-05-12T04:28:23.492Z,99.90
2018-05-12T04:30:51.941Z,99.90
2018-05-12T04:33:20.373Z,99.90
2018-05-12T04:35:49.586Z,99.90
2018-05-12T04:38:18.751Z,99.90
2018-05-12T04:40:47.195Z,99.90
2018-05-12T04:43:15.657Z,99.90
2018-05-12T04:45:44.111Z,99.90
2018-05-12T04:48:12.608Z,99.90
2018-05-12T04:50:41.240Z,99.90
2018-05-12T04:53:10.781Z,99.90
2018-05-12T04:55:40.396Z,99.90
2018-05-12T04:58:09.326Z,99.90
2018-05-12T05:00:38.243Z,99.90
2018-05-12T05:03:07.383Z,99.90
2018-05-12T05:05:36.263Z,99.90
2018-05-12T05:08:04.949Z,99.90
2018-05-12T05:10:33.485Z,99.90
2018-05-12T05:13:02.030Z,99.90
2018-05-12T05:15:30.523Z,99.90
2018-05-12T05:17:59.088Z,99.90
2018-05-12T05:20:27.641Z,99.90
2018-05-12T05:22:56.427Z,99.90
2018-05-12T05:25:26.061Z,99.90
2018-05-12T05:27:54.971Z,99.90
2018-05-12T05:30:23.678Z,99.90
2018-05-12T05:32:53.267Z,99.90
2018-05-12T05:35:22.485Z,99.90
2018-05-12T05:37:51.286Z,99.90
2018-05-12T05:40:20.426Z,99.90
2018-05-12T05:42:48.919Z,99.90
2018-05-12T05:45:17.365Z,99.90
2018-05-12T05:47:45.840Z,99.90
2018-05-12T05:50:14.512Z,99.90
2018-05-12T05:52:43.003Z,99.90
2018-05-12T05:55:11.582Z,99.90
2018-05-12T05:57:40.112Z,99.90
2018-05-12T06:00:09.348Z,99.90
2018-05-12T06:02:37.769Z,99.90
2018-05-12T06:05:06.243Z,99.90
2018-05-12T06:07:34.665Z,99.90
2018-05-12T06:10:03.102Z,99.90
2018-05-12T06:12:31.555Z,99.90
2018-05-12T06:15:00.021Z,99.90
2018-05-12T06:17:28.492Z,99.90
2018-05-12T06:19:58.059Z,99.90
2018-05-12T06:22:26.841Z,99.90
2018-05-12T06:24:55.762Z,99.90
2018-05-12T06:27:24.824Z,99.90
2018-05-12T06:29:53.819Z,99.90
2018-05-12T06:32:23.550Z,99.90
2018-05-12T06:34:53.289Z,99.90
2018-05-12T06:37:22.261Z,99.90
2018-05-12T06:39:50.843Z,99.90
2018-05-12T06:42:19.772Z,99.90
2018-05-12T06:44:48.294Z,99.90
2018-05-12T06:47:16.746Z,99.90
2018-05-12T06:49:45.257Z,99.90
2018-05-12T06:52:13.779Z,99.90
2018-05-12T06:54:42.335Z,99.90
2018-05-12T06:57:11.635Z,99.90
2018-05-12T06:59:40.115Z,99.90
2018-05-12T07:02:08.609Z,99.90
2018-05-12T07:04:37.141Z,99.90
2018-05-12T07:07:05.648Z,99.90
2018-05-12T07:09:34.315Z,99.90
2018-05-12T07:12:02.959Z,99.90
2018-05-12T07:14:31.720Z,99.90
2018-05-12T07:17:00.994Z,99.90
2018-05-12T07:19:29.503Z,99.90
2018-05-12T07:21:57.921Z,99.90
2018-05-12T07:24:26.475Z,99.90
2018-05-12T07:26:55.699Z,99.90
2018-05-12T07:29:24.917Z,99.90
2018-05-12T07:31:54.126Z,99.90
2018-05-12T07:34:22.572Z,99.90
2018-05-12T07:36:51.028Z,99.90
2018-05-12T07:39:19.632Z,99.90
2018-05-12T07:41:48.274Z,99.90
2018-05-12T07:44:17.097Z,99.90
2018-05-12T07:46:45.903Z,99.90
2018-05-12T07:49:14.848Z,99.90
2018-05-12T07:51:43.921Z,99.50
2018-05-12T07:54:12.802Z,99.60
2018-05-12T07:56:42.768Z,98.30
2018-05-12T07:59:12.589Z,94.30
2018-05-12T08:01:41.904Z,95.40
2018-05-12T08:04:10.421Z,95.40
2018-05-12T08:06:39.009Z,94.60
2018-05-12T08:09:08.405Z,93.60
2018-05-12T08:11:37.347Z,93.30
2018-05-12T08:14:06.437Z,92.90
2018-05-12T08:16:36.451Z,92.00
2018-05-12T08:19:05.720Z,92.70
2018-05-12T08:21:34.781Z,91.80
2018-05-12T08:24:04.037Z,90.10
2018-05-12T08:26:33.138Z,87.80
2018-05-12T08:29:03.061Z,85.50
2018-05-12T08:31:32.468Z,86.80
2018-05-12T08:34:01.055Z,85.60
2018-05-12T08:36:29.588Z,83.80
2018-05-12T08:38:58.086Z,83.60
2018-05-12T08:41:26.573Z,84.30
2018-05-12T08:43:55.053Z,83.00
2018-05-12T08:46:23.666Z,83.00
2018-05-12T08:48:53.035Z,80.80
2018-05-12T08:51:21.712Z,80.90
2018-05-12T08:53:51.016Z,80.40
2018-05-12T08:56:20.232Z,80.90
2018-05-12T08:58:48.728Z,80.70
2018-05-12T09:01:17.200Z,77.80
2018-05-12T09:03:45.654Z,76.70
2018-05-12T09:06:14.052Z,76.30
2018-05-12T09:08:42.517Z,74.20
2018-05-12T09:11:11.100Z,77.10
2018-05-12T09:13:40.481Z,77.30
2018-05-12T09:16:09.126Z,75.10
2018-05-12T09:18:38.512Z,76.50
2018-05-12T09:21:07.257Z,76.50
2018-05-12T09:23:35.761Z,75.90
2018-05-12T09:26:04.241Z,75.90
2018-05-12T09:28:32.723Z,75.50
2018-05-12T09:31:01.218Z,75.10
2018-05-12T09:33:29.780Z,75.20
2018-05-12T09:35:58.274Z,76.90
2018-05-12T09:38:26.768Z,72.30
2018-05-12T09:40:55.283Z,70.80
2018-05-12T09:43:23.878Z,73.10
2018-05-12T09:45:52.531Z,70.60
2018-05-12T09:48:22.124Z,76.90
2018-05-12T09:50:51.020Z,76.90
2018-05-12T09:53:20.031Z,71.10
2018-05-12T09:55:48.831Z,75.10
2018-05-12T09:58:17.621Z,76.10
2018-05-12T10:00:46.118Z,72.70
2018-05-12T10:03:14.629Z,70.80
2018-05-12T10:05:43.866Z,69.70
2018-05-12T10:08:13.045Z,67.30
2018-05-12T10:10:41.691Z,67.30
2018-05-12T10:13:10.303Z,67.40
2018-05-12T10:15:38.820Z,68.30
2018-05-12T10:18:07.467Z,67.50
2018-05-12T10:20:36.720Z,66.40
2018-05-12T10:23:05.993Z,68.30
2018-05-12T10:25:34.443Z,68.30
2018-05-12T10:28:02.910Z,67.90
2018-05-12T10:30:31.322Z,66.00
2018-05-12T10:32:59.807Z,70.90
2018-05-12T10:35:28.300Z,67.80
2018-05-12T10:37:57.529Z,68.10
2018-05-12T10:40:26.853Z,69.00
2018-05-12T10:42:55.413Z,68.90
2018-05-12T10:45:24.148Z,65.90
2018-05-12T10:47:52.920Z,69.00
2018-05-12T10:50:21.934Z,68.60
2018-05-12T10:52:50.857Z,69.00
2018-05-12T10:55:19.754Z,67.90
2018-05-12T10:57:48.453Z,67.00
2018-05-12T11:00:17.063Z,68.50
2018-05-12T11:02:45.597Z,67.30
2018-05-12T11:05:14.039Z,66.80
2018-05-12T11:07:42.548Z,66.00
2018-05-12T11:10:11.063Z,65.30
2018-05-12T11:12:39.691Z,65.70
2018-05-12T11:15:09.053Z,63.10
2018-05-12T11:17:37.479Z,63.10
2018-05-12T11:20:05.971Z,61.40
2018-05-12T11:22:34.468Z,60.40
2018-05-12T11:25:03.307Z,61.00
2018-05-12T11:27:32.191Z,61.30
2018-05-12T11:30:01.482Z,61.00
2018-05-12T11:32:30.912Z,61.30
2018-05-12T11:35:00.389Z,61.10
2018-05-12T11:37:29.412Z,61.00
2018-05-12T11:39:58.006Z,63.20
2018-05-12T11:42:26.568Z,63.10
2018-05-12T11:44:55.794Z,64.60
2018-05-12T11:47:24.282Z,64.60
2018-05-12T11:49:53.523Z,62.40
2018-05-12T11:52:22.051Z,62.40
2018-05-12T11:54:51.464Z,62.60
2018-05-12T11:57:20.089Z,62.60
2018-05-12T11:59:48.644Z,62.80
2018-05-12T12:02:17.172Z,63.80
2018-05-12T12:04:45.689Z,62.30
2018-05-12T12:07:14.136Z,62.80
2018-05-12T12:09:42.585Z,61.30
2018-05-12T12:12:11.070Z,63.00
2018-05-12T12:14:39.552Z,62.40
2018-05-12T12:17:08.928Z,62.90
2018-05-12T12:19:37.365Z,62.90
2018-05-12T12:22:06.060Z,61.40
2018-05-12T12:24:34.945Z,65.80
2018-05-12T12:27:04.236Z,62.20
2018-05-12T12:29:36.943Z,62.20
2018-05-12T12:32:06.372Z,62.70
2018-05-12T12:34:34.952Z,62.40
2018-05-12T12:37:03.705Z,62.90
2018-05-12T12:39:33.920Z,63.30
2018-05-12T12:42:03.612Z,60.30
2018-05-12T12:44:33.750Z,60.50
2018-05-12T12:47:03.466Z,62.00
2018-05-12T12:49:33.770Z,60.10
2018-05-12T12:52:03.540Z,60.50
2018-05-12T12:54:32.613Z,60.00
2018-05-12T12:57:01.502Z,60.00
2018-05-12T12:59:31.932Z,58.60
2018-05-12T13:02:01.495Z,58.40
2018-05-12T13:04:30.468Z,60.30
2018-05-12T13:07:01.053Z,60.10
2018-05-12T13:09:33.231Z,59.30
2018-05-12T13:12:06.683Z,60.60
2018-05-12T13:14:35.352Z,59.20
2018-05-12T13:17:09.333Z,58.50
2018-05-12T13:19:39.918Z,58.90
2018-05-12T13:22:08.671Z,57.60
2018-05-12T13:24:39.246Z,58.80
2018-05-12T13:27:40.305Z,57.60
2018-05-12T13:30:10.008Z,57.70
2018-05-12T13:33:02.706Z,57.60
2018-05-12T13:35:37.942Z,57.00
2018-05-12T13:38:07.795Z,58.30
2018-05-12T13:40:36.411Z,58.30
2018-05-12T13:43:05.083Z,56.00
2018-05-12T13:45:34.006Z,55.70
2018-05-12T13:48:12.399Z,55.40
2018-05-12T13:50:40.881Z,55.10
2018-05-12T13:53:10.170Z,55.60
2018-05-12T13:55:38.641Z,55.60
2018-05-12T13:58:07.422Z,53.90
2018-05-12T14:00:36.125Z,55.90
2018-05-12T14:03:05.024Z,57.00
2018-05-12T14:05:33.795Z,55.40
2018-05-12T14:08:10.436Z,55.30
2018-05-12T14:10:38.970Z,56.10
2018-05-12T14:13:07.691Z,56.10
2018-05-12T14:15:36.671Z,55.00
2018-05-12T14:18:05.159Z,55.30
2018-05-12T14:20:33.745Z,55.50
2018-05-12T14:23:05.479Z,55.00
2018-05-12T14:25:34.026Z,55.30
2018-05-12T14:28:02.685Z,55.20
2018-05-12T14:30:31.301Z,55.10
2018-05-12T14:32:59.863Z,55.40
2018-05-12T14:35:28.415Z,56.40
2018-05-12T14:37:56.946Z,57.20
2018-05-12T14:40:25.436Z,56.80
2018-05-12T14:42:53.943Z,55.40
2018-05-12T14:45:22.463Z,57.50
2018-05-12T14:47:51.044Z,57.20
2018-05-12T14:50:19.636Z,58.80
2018-05-12T14:52:48.209Z,59.10
2018-05-12T14:55:17.936Z,58.50
2018-05-12T14:57:46.840Z,58.50
2018-05-12T15:00:15.502Z,58.30
2018-05-12T15:02:48.364Z,59.70
2018-05-12T15:05:17.060Z,61.10
2018-05-12T15:07:47.105Z,62.00
2018-05-12T15:10:15.773Z,62.00
2018-05-12T15:12:44.554Z,63.00
2018-05-12T15:15:14.010Z,62.40
2018-05-12T15:17:43.704Z,61.40
2018-05-12T15:20:12.462Z,61.50
2018-05-12T15:22:41.247Z,61.20
2018-05-12T15:25:10.881Z,62.70
2018-05-12T15:27:39.780Z,62.10
2018-05-12T15:30:08.247Z,62.60
2018-05-12T15:32:36.752Z,63.50
2018-05-12T15:35:05.196Z,64.50
2018-05-12T15:37:34.471Z,63.50
2018-05-12T15:40:03.005Z,63.50
2018-05-12T15:42:31.633Z,63.40
2018-05-12T15:45:00.158Z,63.40
2018-05-12T15:47:28.600Z,64.40
2018-05-12T15:49:57.116Z,63.70
2018-05-12T15:52:25.539Z,64.00
2018-05-12T15:54:54.040Z,65.00
2018-05-12T15:57:22.549Z,64.70
2018-05-12T15:59:50.986Z,64.70
2018-05-12T16:02:19.445Z,66.70
2018-05-12T16:04:50.819Z,66.50
2018-05-12T16:07:19.260Z,66.40
2018-05-12T16:09:47.783Z,66.50
2018-05-12T16:12:16.529Z,66.20
2018-05-12T16:14:45.304Z,67.40
2018-05-12T16:17:18.030Z,66.80
2018-05-12T16:19:46.724Z,66.50
2018-05-12T16:22:15.425Z,65.50
2018-05-12T16:24:44.581Z,67.30
2018-05-12T16:27:17.261Z,66.80
2018-05-12T16:29:46.146Z,66.40
2018-05-12T16:32:14.843Z,67.40
2018-05-12T16:34:44.718Z,66.90
2018-05-12T16:37:13.504Z,67.40
2018-05-12T16:39:45.294Z,68.00
2018-05-12T16:42:19.701Z,67.60
2018-05-12T16:44:48.276Z,67.80
2018-05-12T16:47:16.861Z,67.80
2018-05-12T16:49:45.444Z,67.30
2018-05-12T16:52:14.349Z,67.50
2018-05-12T16:54:43.651Z,68.40
2018-05-12T16:57:16.132Z,68.30
2018-05-12T16:59:48.943Z,69.80
2018-05-12T17:02:17.569Z,69.90
2018-05-12T17:04:46.270Z,69.80
2018-05-12T17:07:15.046Z,70.30
2018-05-12T17:09:48.519Z,69.60
2018-05-12T17:12:17.118Z,69.80
2018-05-12T17:14:46.516Z,70.10
2018-05-12T17:17:15.298Z,70.00
2018-05-12T17:19:44.156Z,69.80
2018-05-12T17:22:17.366Z,71.00
2018-05-12T17:24:48.982Z,71.00
2018-05-12T17:27:17.609Z,70.90
2018-05-12T17:29:49.439Z,70.70
2018-05-12T17:32:18.065Z,71.20
2018-05-12T17:34:46.899Z,70.60
2018-05-12T17:37:18.888Z,71.20
2018-05-12T17:39:49.592Z,71.80
2018-05-12T17:42:19.508Z,72.00
2018-05-12T17:44:48.079Z,72.00
2018-05-12T17:47:17.126Z,72.80
2018-05-12T17:49:46.040Z,73.40
2018-05-12T17:52:14.856Z,73.70
2018-05-12T17:54:44.761Z,74.00
2018-05-12T17:57:13.589Z,73.70
2018-05-12T17:59:43.386Z,74.20
2018-05-12T18:02:12.566Z,74.30
2018-05-12T18:04:41.398Z,74.50
2018-05-12T18:07:13.594Z,75.10
2018-05-12T18:09:44.081Z,74.80
2018-05-12T18:12:23.695Z,74.60
2018-05-12T18:14:56.278Z,74.40
2018-05-12T18:17:25.286Z,75.20
2018-05-12T18:19:53.986Z,75.20
2018-05-12T18:22:23.565Z,75.80
2018-05-12T18:24:53.255Z,76.80
2018-05-12T18:27:22.107Z,77.50
2018-05-12T18:29:50.765Z,76.90
2018-05-12T18:32:19.279Z,77.30
2018-05-12T18:34:47.743Z,77.40
2018-05-12T18:37:16.220Z,78.10
2018-05-12T18:39:45.578Z,77.90
2018-05-12T18:42:14.197Z,77.90
2018-05-12T18:44:42.821Z,78.20
2018-05-12T18:47:11.378Z,78.70
2018-05-12T18:49:39.824Z,78.80
2018-05-12T18:52:31.370Z,78.90
2018-05-12T18:55:02.550Z,79.50
2018-05-12T18:57:31.078Z,78.80
2018-05-12T18:59:59.635Z,79.30
2018-05-12T19:02:28.264Z,79.90
2018-05-12T19:04:57.604Z,80.20
2018-05-12T19:07:26.117Z,80.60
2018-05-12T19:09:54.823Z,81.00
2018-05-12T19:12:23.311Z,81.20
2018-05-12T19:14:57.074Z,81.20
2018-05-12T19:17:25.530Z,81.60
2018-05-12T19:19:55.109Z,82.60
2018-05-12T19:22:23.904Z,82.50
2018-05-12T19:24:52.290Z,82.20
2018-05-12T19:27:20.855Z,81.20
2018-05-12T19:29:49.556Z,83.70
2018-05-12T19:32:18.185Z,84.70
2018-05-12T19:34:46.852Z,85.90
2018-05-12T19:37:15.451Z,86.20
2018-05-12T19:39:43.904Z,86.80
2018-05-12T19:42:12.381Z,85.70
2018-05-12T19:44:40.884Z,84.70
2018-05-12T19:47:09.374Z,85.70
2018-05-12T19:49:38.248Z,86.50
2018-05-12T19:52:06.752Z,86.40
2018-05-12T19:54:36.247Z,88.50
2018-05-12T19:57:04.739Z,88.60
2018-05-12T19:59:33.260Z,90.00
2018-05-12T20:02:01.761Z,90.10
2018-05-12T20:04:30.480Z,90.10
2018-05-12T20:06:59.482Z,90.60
2018-05-12T20:09:27.916Z,91.30
2018-05-12T20:11:56.499Z,91.60
2018-05-12T20:14:25.023Z,91.90
2018-05-12T20:16:53.536Z,92.00
2018-05-12T20:19:21.998Z,92.50
2018-05-12T20:21:50.727Z,92.20
2018-05-12T20:24:19.201Z,92.30
2018-05-12T20:26:47.717Z,92.00
2018-05-12T20:29:16.149Z,93.00
2018-05-12T20:31:44.610Z,93.40
2018-05-12T20:34:13.917Z,93.80
2018-05-12T20:36:42.364Z,93.80
2018-05-12T20:39:10.866Z,94.40
2018-05-12T20:41:39.328Z,94.20
2018-05-12T20:44:07.856Z,94.80
2018-05-12T20:46:36.350Z,95.20
2018-05-12T20:49:04.838Z,95.50
2018-05-12T20:51:33.325Z,95.10
2018-05-12T20:54:01.780Z,95.70
2018-05-12T20:56:30.263Z,96.30
2018-05-12T20:58:58.767Z,96.80
2018-05-12T21:01:27.258Z,97.80
2018-05-12T21:03:55.737Z,97.90
2018-05-12T21:06:24.235Z,97.80
2018-05-12T21:08:53.603Z,98.30
2018-05-12T21:11:22.090Z,98.30
2018-05-12T21:13:50.563Z,98.70
2018-05-12T21:16:19.029Z,98.90
2018-05-12T21:18:47.494Z,99.50
2018-05-12T21:21:16.873Z,99.80
2018-05-12T21:23:45.486Z,99.90
2018-05-12T21:26:13.889Z,99.90
2018-05-12T21:28:42.418Z,99.80
2018-05-12T21:31:10.992Z,99.40
2018-05-12T21:33:39.528Z,98.60
2018-05-12T21:36:08.007Z,99.20
2018-05-12T21:38:47.667Z,99.50
2018-05-12T21:41:18.425Z,99.80
2018-05-12T21:43:47.083Z,99.90
2018-05-12T21:46:15.598Z,99.90
2018-05-12T21:48:45.793Z,99.90
2018-05-12T21:51:14.256Z,99.90
2018-05-12T21:53:42.809Z,99.90
2018-05-12T21:56:11.297Z,99.90
2018-05-12T21:58:39.732Z,99.80
2018-05-12T22:01:08.210Z,99.40
2018-05-12T22:03:36.642Z,98.50
2018-05-12T22:06:05.185Z,99.00
2018-05-12T22:08:34.445Z,99.90
2018-05-12T22:11:02.890Z,99.90
2018-05-12T22:13:31.382Z,99.90
2018-05-12T22:15:59.885Z,99.90
2018-05-12T22:18:28.440Z,99.90
2018-05-12T22:20:57.763Z,99.90
2018-05-12T22:23:27.033Z,99.60
2018-05-12T22:25:55.519Z,99.60
2018-05-12T22:28:24.032Z,99.00
2018-05-12T22:30:52.507Z,98.20
2018-05-12T22:33:21.747Z,99.30
2018-05-12T22:35:50.191Z,99.30
2018-05-12T22:38:18.660Z,99.40
2018-05-12T22:40:47.888Z,98.60
2018-05-12T22:43:16.770Z,97.90
2018-05-12T22:45:45.266Z,97.60
2018-05-12T22:48:13.710Z,98.70
2018-05-12T22:50:42.178Z,98.40
2018-05-12T22:53:10.644Z,99.60
2018-05-12T22:55:39.084Z,99.90
2018-05-12T22:58:07.562Z,99.90
2018-05-12T23:00:36.014Z,99.90
2018-05-12T23:03:05.305Z,99.90
2018-05-12T23:05:33.874Z,99.90
2018-05-12T23:08:02.446Z,99.90
2018-05-12T23:10:30.932Z,99.90
2018-05-12T23:12:59.544Z,99.90
2018-05-12T23:15:28.012Z,99.90
2018-05-12T23:17:57.325Z,99.90
2018-05-12T23:20:25.802Z,99.90
2018-05-12T23:22:55.055Z,99.90
2018-05-12T23:25:23.487Z,99.90
2018-05-12T23:27:52.144Z,99.90
2018-05-12T23:30:21.375Z,99.90
2018-05-12T23:32:50.668Z,99.90
2018-05-12T23:35:19.244Z,99.90
2018-05-12T23:37:47.761Z,99.90
2018-05-12T23:40:16.395Z,99.80
2018-05-12T23:42:44.924Z,99.90
2018-05-12T23:45:13.383Z,99.90
2018-05-12T23:47:41.899Z,99.90
2018-05-12T23:50:10.365Z,99.90
2018-05-12T23:52:38.812Z,99.90
2018-05-12T23:55:07.360Z,99.90
2018-05-12T23:57:35.977Z,99.90
